sensor_id;sensor_type;location;lat;lon;timestamp;pressure;altitude;pressure_sealevel;temperature;humidity
72124;BME280;59998;37.126;-8.538;2022-08-01T00:01:18;101161.5;;;28.3;40.7
72124;BME280;59998;37.126;-8.538;2022-08-01T00:06:04;101157.6;;;28.2;41.7
72124;BME280;59998;37.126;-8.538;2022-08-01T00:10:50;101158.8;;;28.2;41.8
72124;BME280;59998;37.126;-8.538;2022-08-01T00:15:37;101166.4;;;28.1;42.2
72124;BME280;59998;37.126;-8.538;2022-08-01T00:20:24;101151.9;;;28.0;42.3
72124;BME280;59998;37.126;-8.538;2022-08-01T00:25:10;101161.8;;;28.0;42.1
72124;BME280;59998;37.126;-8.538;2022-08-01T00:29:56;101157.5;;;28.0;42.2
72124;BME280;59998;37.126;-8.538;2022-08-01T00:34:42;101161.9;;;28.0;41.6
72124;BME280;59998;37.126;-8.538;2022-08-01T00:39:29;101151.7;;;27.9;41.4
72124;BME280;59998;37.126;-8.538;2022-08-01T00:44:17;101162.0;;;27.9;42.5
72124;BME280;59998;37.126;-8.538;2022-08-01T00:49:04;101147.5;;;27.8;43.0
72124;BME280;59998;37.126;-8.538;2022-08-01T00:53:50;101148.0;;;27.8;43.4
72124;BME280;59998;37.126;-8.538;2022-08-01T00:58:37;101156.3;;;27.7;42.5
72124;BME280;59998;37.126;-8.538;2022-08-01T01:03:24;101148.0;;;27.7;43.0
72124;BME280;59998;37.126;-8.538;2022-08-01T01:08:13;101152.4;;;27.7;43.5
72124;BME280;59998;37.126;-8.538;2022-08-01T01:13:05;101148.5;;;27.6;43.4
72124;BME280;59998;37.126;-8.538;2022-08-01T01:17:53;101148.9;;;27.6;43.5
72124;BME280;59998;37.126;-8.538;2022-08-01T01:22:58;101147.8;;;27.6;43.5
72124;BME280;59998;37.126;-8.538;2022-08-01T01:27:54;101152.5;;;27.5;43.6
72124;BME280;59998;37.126;-8.538;2022-08-01T01:32:44;101138.8;;;27.5;43.1
72124;BME280;59998;37.126;-8.538;2022-08-01T01:37:32;101137.2;;;27.5;43.8
72124;BME280;59998;37.126;-8.538;2022-08-01T01:42:19;101147.6;;;27.4;44.0
72124;BME280;59998;37.126;-8.538;2022-08-01T01:47:07;101139.8;;;27.3;42.7
72124;BME280;59998;37.126;-8.538;2022-08-01T01:51:55;101142.1;;;27.3;42.2
72124;BME280;59998;37.126;-8.538;2022-08-01T01:56:41;101146.1;;;27.4;41.5
72124;BME280;59998;37.126;-8.538;2022-08-01T02:01:31;101139.8;;;27.3;41.3
72124;BME280;59998;37.126;-8.538;2022-08-01T02:06:19;101135.8;;;27.4;41.3
72124;BME280;59998;37.126;-8.538;2022-08-01T02:11:05;101132.3;;;27.3;41.3
72124;BME280;59998;37.126;-8.538;2022-08-01T02:15:52;101135.9;;;27.3;41.1
72124;BME280;59998;37.126;-8.538;2022-08-01T02:20:39;101135.9;;;27.2;41.2
72124;BME280;59998;37.126;-8.538;2022-08-01T02:25:27;101136.0;;;27.1;41.9
72124;BME280;59998;37.126;-8.538;2022-08-01T02:30:17;101142.8;;;27.1;41.8
72124;BME280;59998;37.126;-8.538;2022-08-01T02:35:07;101147.2;;;27.0;41.2
72124;BME280;59998;37.126;-8.538;2022-08-01T02:39:56;101143.0;;;26.9;41.7
72124;BME280;59998;37.126;-8.538;2022-08-01T02:44:46;101138.6;;;26.9;41.7
72124;BME280;59998;37.126;-8.538;2022-08-01T02:49:36;101140.2;;;26.9;41.9
72124;BME280;59998;37.126;-8.538;2022-08-01T02:54:21;101139.5;;;26.8;41.9
72124;BME280;59998;37.126;-8.538;2022-08-01T02:59:10;101141.8;;;26.8;42.1
72124;BME280;59998;37.126;-8.538;2022-08-01T03:03:58;101127.3;;;26.8;41.9
72124;BME280;59998;37.126;-8.538;2022-08-01T03:08:46;101126.9;;;26.8;43.9
72124;BME280;59998;37.126;-8.538;2022-08-01T03:13:33;101123.4;;;26.8;45.4
72124;BME280;59998;37.126;-8.538;2022-08-01T03:18:23;101118.3;;;26.7;47.3
72124;BME280;59998;37.126;-8.538;2022-08-01T03:23:11;101128.2;;;26.6;47.1
72124;BME280;59998;37.126;-8.538;2022-08-01T03:28:02;101123.9;;;26.6;46.3
72124;BME280;59998;37.126;-8.538;2022-08-01T03:32:49;101120.0;;;26.5;43.9
72124;BME280;59998;37.126;-8.538;2022-08-01T03:37:38;101120.1;;;26.5;42.9
72124;BME280;59998;37.126;-8.538;2022-08-01T03:42:31;101127.3;;;26.3;43.0
72124;BME280;59998;37.126;-8.538;2022-08-01T03:47:18;101125.3;;;26.3;43.1
72124;BME280;59998;37.126;-8.538;2022-08-01T03:52:09;101126.9;;;26.3;43.1
72124;BME280;59998;37.126;-8.538;2022-08-01T03:56:59;101118.7;;;26.2;42.8
72124;BME280;59998;37.126;-8.538;2022-08-01T04:01:49;101122.6;;;26.2;43.2
72124;BME280;59998;37.126;-8.538;2022-08-01T04:06:39;101113.5;;;26.2;43.2
72124;BME280;59998;37.126;-8.538;2022-08-01T04:11:27;101114.3;;;26.2;43.9
72124;BME280;59998;37.126;-8.538;2022-08-01T04:16:13;101108.4;;;26.2;43.6
72124;BME280;59998;37.126;-8.538;2022-08-01T04:21:00;101109.2;;;26.2;43.4
72124;BME280;59998;37.126;-8.538;2022-08-01T04:25:47;101111.2;;;26.2;43.4
72124;BME280;59998;37.126;-8.538;2022-08-01T04:30:39;101107.6;;;26.2;43.2
72124;BME280;59998;37.126;-8.538;2022-08-01T04:35:28;101098.6;;;26.2;43.3
72124;BME280;59998;37.126;-8.538;2022-08-01T04:40:18;101095.1;;;26.1;43.0
72124;BME280;59998;37.126;-8.538;2022-08-01T04:45:06;101106.5;;;26.0;43.4
72124;BME280;59998;37.126;-8.538;2022-08-01T04:49:54;101114.9;;;25.9;43.6
72124;BME280;59998;37.126;-8.538;2022-08-01T04:54:40;101119.7;;;25.9;43.5
72124;BME280;59998;37.126;-8.538;2022-08-01T04:59:27;101115.8;;;25.8;43.7
72124;BME280;59998;37.126;-8.538;2022-08-01T05:04:13;101118.1;;;25.7;44.1
72124;BME280;59998;37.126;-8.538;2022-08-01T05:08:59;101122.1;;;25.7;44.1
72124;BME280;59998;37.126;-8.538;2022-08-01T05:13:45;101122.1;;;25.7;43.1
72124;BME280;59998;37.126;-8.538;2022-08-01T05:18:31;101126.9;;;25.6;42.2
72124;BME280;59998;37.126;-8.538;2022-08-01T05:23:18;101115.8;;;25.5;41.8
72124;BME280;59998;37.126;-8.538;2022-08-01T05:28:04;101120.6;;;25.5;43.6
72124;BME280;59998;37.126;-8.538;2022-08-01T05:32:51;101124.1;;;25.4;45.1
72124;BME280;59998;37.126;-8.538;2022-08-01T05:37:39;101125.3;;;25.4;46.3
72124;BME280;59998;37.126;-8.538;2022-08-01T05:42:26;101131.6;;;25.3;47.7
72124;BME280;59998;37.126;-8.538;2022-08-01T05:47:12;101139.5;;;25.3;48.2
72124;BME280;59998;37.126;-8.538;2022-08-01T05:51:58;101132.5;;;25.2;48.3
72124;BME280;59998;37.126;-8.538;2022-08-01T05:56:45;101136.8;;;25.1;48.7
72124;BME280;59998;37.126;-8.538;2022-08-01T06:01:31;101141.5;;;25.1;48.8
72124;BME280;59998;37.126;-8.538;2022-08-01T06:06:17;101140.0;;;25.1;48.3
72124;BME280;59998;37.126;-8.538;2022-08-01T06:11:04;101145.9;;;25.0;48.5
72124;BME280;59998;37.126;-8.538;2022-08-01T06:15:51;101142.7;;;24.9;48.3
72124;BME280;59998;37.126;-8.538;2022-08-01T06:20:37;101135.2;;;24.8;47.5
72124;BME280;59998;37.126;-8.538;2022-08-01T06:25:26;101148.6;;;24.8;46.9
72124;BME280;59998;37.126;-8.538;2022-08-01T06:30:13;101140.3;;;24.8;46.6
72124;BME280;59998;37.126;-8.538;2022-08-01T06:35:01;101149.8;;;24.9;46.2
72124;BME280;59998;37.126;-8.538;2022-08-01T06:39:48;101155.7;;;24.9;46.5
72124;BME280;59998;37.126;-8.538;2022-08-01T06:44:34;101153.7;;;24.9;48.4
72124;BME280;59998;37.126;-8.538;2022-08-01T06:49:24;101155.3;;;24.9;49.0
72124;BME280;59998;37.126;-8.538;2022-08-01T06:54:10;101163.1;;;24.9;49.1
72124;BME280;59998;37.126;-8.538;2022-08-01T06:58:56;101165.5;;;24.9;49.3
72124;BME280;59998;37.126;-8.538;2022-08-01T07:03:43;101178.9;;;24.9;49.8
72124;BME280;59998;37.126;-8.538;2022-08-01T07:08:29;101171.4;;;24.9;49.9
72124;BME280;59998;37.126;-8.538;2022-08-01T07:13:15;101169.0;;;25.0;50.6
72124;BME280;59998;37.126;-8.538;2022-08-01T07:18:01;101174.5;;;25.0;50.7
72124;BME280;59998;37.126;-8.538;2022-08-01T07:22:50;101181.6;;;25.0;50.7
72124;BME280;59998;37.126;-8.538;2022-08-01T07:27:37;101185.1;;;25.1;50.3
72124;BME280;59998;37.126;-8.538;2022-08-01T07:32:24;101184.3;;;25.2;50.3
72124;BME280;59998;37.126;-8.538;2022-08-01T07:37:11;101182.4;;;25.3;49.7
72124;BME280;59998;37.126;-8.538;2022-08-01T07:41:57;101181.5;;;25.4;49.9
72124;BME280;59998;37.126;-8.538;2022-08-01T07:46:44;101184.6;;;25.5;49.5
72124;BME280;59998;37.126;-8.538;2022-08-01T07:51:30;101181.5;;;25.7;49.1
72124;BME280;59998;37.126;-8.538;2022-08-01T07:56:19;101185.0;;;25.8;48.7
72124;BME280;59998;37.126;-8.538;2022-08-01T08:01:05;101188.5;;;25.9;48.6
72124;BME280;59998;37.126;-8.538;2022-08-01T08:05:52;101191.2;;;26.0;46.8
72124;BME280;59998;37.126;-8.538;2022-08-01T08:10:38;101193.5;;;26.2;46.7
72124;BME280;59998;37.126;-8.538;2022-08-01T08:15:24;101201.7;;;26.3;46.9
72124;BME280;59998;37.126;-8.538;2022-08-01T08:20:11;101200.4;;;26.4;47.1
72124;BME280;59998;37.126;-8.538;2022-08-01T08:24:57;101213.3;;;26.5;46.5
72124;BME280;59998;37.126;-8.538;2022-08-01T08:29:44;101205.0;;;26.7;45.8
72124;BME280;59998;37.126;-8.538;2022-08-01T08:34:30;101205.7;;;26.8;45.0
72124;BME280;59998;37.126;-8.538;2022-08-01T08:39:16;101205.2;;;26.9;44.7
72124;BME280;59998;37.126;-8.538;2022-08-01T08:44:04;101198.4;;;27.0;44.0
72124;BME280;59998;37.126;-8.538;2022-08-01T08:48:51;101203.0;;;27.1;43.7
72124;BME280;59998;37.126;-8.538;2022-08-01T08:53:38;101210.0;;;27.3;44.8
72124;BME280;59998;37.126;-8.538;2022-08-01T08:58:26;101207.7;;;27.2;44.7
72124;BME280;59998;37.126;-8.538;2022-08-01T09:03:12;101218.9;;;27.0;45.1
72124;BME280;59998;37.126;-8.538;2022-08-01T09:07:59;101215.0;;;27.0;45.0
72124;BME280;59998;37.126;-8.538;2022-08-01T09:13:03;101220.9;;;27.0;44.7
72124;BME280;59998;37.126;-8.538;2022-08-01T09:17:50;101219.6;;;27.1;44.1
72124;BME280;59998;37.126;-8.538;2022-08-01T09:22:37;101223.8;;;27.2;43.1
72124;BME280;59998;37.126;-8.538;2022-08-01T09:27:23;101220.1;;;27.4;40.6
72124;BME280;59998;37.126;-8.538;2022-08-01T09:32:10;101235.0;;;27.5;40.8
72124;BME280;59998;37.126;-8.538;2022-08-01T09:36:59;101225.4;;;27.7;39.4
72124;BME280;59998;37.126;-8.538;2022-08-01T09:41:44;101227.2;;;27.8;39.4
72124;BME280;59998;37.126;-8.538;2022-08-01T09:46:31;101229.5;;;27.9;39.4
72124;BME280;59998;37.126;-8.538;2022-08-01T09:51:31;101238.9;;;27.9;38.7
72124;BME280;59998;37.126;-8.538;2022-08-01T09:56:20;101229.8;;;27.9;38.9
72124;BME280;59998;37.126;-8.538;2022-08-01T10:01:07;101234.2;;;27.9;38.5
72124;BME280;59998;37.126;-8.538;2022-08-01T10:05:53;101238.9;;;27.9;38.9
72124;BME280;59998;37.126;-8.538;2022-08-01T10:10:40;101239.0;;;27.9;39.6
72124;BME280;59998;37.126;-8.538;2022-08-01T10:15:27;101240.2;;;27.8;40.3
72124;BME280;59998;37.126;-8.538;2022-08-01T10:20:13;101235.1;;;27.8;40.4
72124;BME280;59998;37.126;-8.538;2022-08-01T10:25:02;101234.8;;;27.7;41.4
72124;BME280;59998;37.126;-8.538;2022-08-01T10:29:51;101233.6;;;27.8;41.8
72124;BME280;59998;37.126;-8.538;2022-08-01T10:34:40;101235.5;;;27.8;42.7
72124;BME280;59998;37.126;-8.538;2022-08-01T10:39:28;101244.2;;;27.7;43.8
72124;BME280;59998;37.126;-8.538;2022-08-01T10:44:15;101248.3;;;27.6;44.8
72124;BME280;59998;37.126;-8.538;2022-08-01T10:49:04;101247.6;;;27.5;45.9
72124;BME280;59998;37.126;-8.538;2022-08-01T10:53:53;101254.0;;;27.5;46.8
72124;BME280;59998;37.126;-8.538;2022-08-01T10:58:42;101251.2;;;27.5;47.9
72124;BME280;59998;37.126;-8.538;2022-08-01T11:03:34;101245.2;;;27.6;48.0
72124;BME280;59998;37.126;-8.538;2022-08-01T11:08:22;101246.6;;;27.7;48.4
72124;BME280;59998;37.126;-8.538;2022-08-01T11:13:11;101241.1;;;27.7;48.8
72124;BME280;59998;37.126;-8.538;2022-08-01T11:18:01;101231.3;;;27.6;49.8
72124;BME280;59998;37.126;-8.538;2022-08-01T11:28:19;101241.9;;;27.3;51.3
72124;BME280;59998;37.126;-8.538;2022-08-01T11:33:07;101228.0;;;27.4;51.2
72124;BME280;59998;37.126;-8.538;2022-08-01T11:37:54;101238.2;;;27.5;51.3
72124;BME280;59998;37.126;-8.538;2022-08-01T11:42:40;101245.7;;;27.5;51.6
72124;BME280;59998;37.126;-8.538;2022-08-01T11:47:59;101240.1;;;27.5;51.6
72124;BME280;59998;37.126;-8.538;2022-08-01T11:52:49;101244.6;;;27.4;52.1
72124;BME280;59998;37.126;-8.538;2022-08-01T11:57:40;101239.7;;;27.5;52.1
72124;BME280;59998;37.126;-8.538;2022-08-01T12:02:28;101242.8;;;27.6;52.1
72124;BME280;59998;37.126;-8.538;2022-08-01T12:07:17;101240.3;;;27.7;52.2
72124;BME280;59998;37.126;-8.538;2022-08-01T12:12:04;101241.2;;;27.9;51.8
72124;BME280;59998;37.126;-8.538;2022-08-01T12:16:52;101246.7;;;28.0;52.0
72124;BME280;59998;37.126;-8.538;2022-08-01T12:21:39;101247.0;;;28.1;51.9
72124;BME280;59998;37.126;-8.538;2022-08-01T12:26:41;101251.9;;;28.0;52.4
72124;BME280;59998;37.126;-8.538;2022-08-01T12:31:34;101239.4;;;27.8;52.6
72124;BME280;59998;37.126;-8.538;2022-08-01T12:36:28;101232.4;;;27.8;52.5
72124;BME280;59998;37.126;-8.538;2022-08-01T12:41:18;101227.3;;;27.7;51.4
72124;BME280;59998;37.126;-8.538;2022-08-01T12:46:05;101218.2;;;27.7;51.8
72124;BME280;59998;37.126;-8.538;2022-08-01T12:50:52;101218.6;;;27.7;52.3
72124;BME280;59998;37.126;-8.538;2022-08-01T12:55:46;101224.3;;;27.5;53.4
72124;BME280;59998;37.126;-8.538;2022-08-01T13:00:33;101216.2;;;27.3;54.1
72124;BME280;59998;37.126;-8.538;2022-08-01T13:55:08;101201.4;;;28.5;52.0
72124;BME280;59998;37.126;-8.538;2022-08-01T13:59:51;101204.9;;;28.3;52.7
72124;BME280;59998;37.126;-8.538;2022-08-01T14:04:37;101193.8;;;28.0;53.9
72124;BME280;59998;37.126;-8.538;2022-08-01T14:09:24;101193.0;;;27.7;54.5
72124;BME280;59998;37.126;-8.538;2022-08-01T14:14:10;101182.8;;;27.7;51.5
72124;BME280;59998;37.126;-8.538;2022-08-01T14:18:57;101176.9;;;27.6;49.4
72124;BME280;59998;37.126;-8.538;2022-08-01T14:23:43;101177.0;;;27.9;46.2
72124;BME280;59998;37.126;-8.538;2022-08-01T14:28:29;101183.4;;;28.1;47.3
72124;BME280;59998;37.126;-8.538;2022-08-01T14:33:15;101184.0;;;28.2;47.3
72124;BME280;59998;37.126;-8.538;2022-08-01T14:38:02;101174.4;;;28.6;46.3
72124;BME280;59998;37.126;-8.538;2022-08-01T14:42:51;101175.9;;;28.9;45.9
72124;BME280;59998;37.126;-8.538;2022-08-01T14:47:39;101171.8;;;29.0;45.0
72124;BME280;59998;37.126;-8.538;2022-08-01T14:52:25;101175.1;;;28.6;46.4
72124;BME280;59998;37.126;-8.538;2022-08-01T14:57:11;101165.4;;;28.3;48.6
72124;BME280;59998;37.126;-8.538;2022-08-01T15:01:57;101170.8;;;28.4;49.0
72124;BME280;59998;37.126;-8.538;2022-08-01T15:06:44;101158.4;;;28.5;49.4
72124;BME280;59998;37.126;-8.538;2022-08-01T15:11:30;101149.8;;;28.7;46.7
72124;BME280;59998;37.126;-8.538;2022-08-01T15:16:16;101148.0;;;28.8;44.6
72124;BME280;59998;37.126;-8.538;2022-08-01T15:21:05;101137.2;;;29.1;44.8
72124;BME280;59998;37.126;-8.538;2022-08-01T15:25:51;101127.0;;;29.2;46.3
72124;BME280;59998;37.126;-8.538;2022-08-01T15:30:38;101125.7;;;29.3;45.8
72124;BME280;59998;37.126;-8.538;2022-08-01T15:35:24;101127.7;;;29.5;44.3
72124;BME280;59998;37.126;-8.538;2022-08-01T15:40:11;101123.2;;;29.8;45.5
72124;BME280;59998;37.126;-8.538;2022-08-01T15:44:57;101119.8;;;29.9;45.2
72124;BME280;59998;37.126;-8.538;2022-08-01T15:49:44;101109.8;;;29.9;43.8
72124;BME280;59998;37.126;-8.538;2022-08-01T15:54:30;101112.3;;;30.1;43.4
72124;BME280;59998;37.126;-8.538;2022-08-01T15:59:17;101091.0;;;30.2;41.4
72124;BME280;59998;37.126;-8.538;2022-08-01T16:04:03;101088.3;;;30.5;40.8
72124;BME280;59998;37.126;-8.538;2022-08-01T16:08:50;101097.9;;;30.6;41.3
72124;BME280;59998;37.126;-8.538;2022-08-01T16:13:37;101088.0;;;30.8;40.3
72124;BME280;59998;37.126;-8.538;2022-08-01T16:18:23;101086.5;;;31.0;38.0
72124;BME280;59998;37.126;-8.538;2022-08-01T16:23:09;101081.6;;;31.5;34.9
72124;BME280;59998;37.126;-8.538;2022-08-01T16:27:56;101071.4;;;32.2;30.5
72124;BME280;59998;37.126;-8.538;2022-08-01T16:32:43;101076.0;;;32.8;29.3
72124;BME280;59998;37.126;-8.538;2022-08-01T16:37:29;101068.2;;;33.0;25.8
72124;BME280;59998;37.126;-8.538;2022-08-01T16:42:15;101073.0;;;33.3;25.9
72124;BME280;59998;37.126;-8.538;2022-08-01T16:47:02;101064.4;;;33.4;25.0
72124;BME280;59998;37.126;-8.538;2022-08-01T16:51:49;101058.0;;;33.5;25.2
72124;BME280;59998;37.126;-8.538;2022-08-01T16:56:35;101058.3;;;33.7;25.3
72124;BME280;59998;37.126;-8.538;2022-08-01T17:01:24;101055.6;;;33.8;25.2
72124;BME280;59998;37.126;-8.538;2022-08-01T17:06:11;101064.9;;;33.8;25.1
72124;BME280;59998;37.126;-8.538;2022-08-01T17:10:58;101059.4;;;33.7;24.6
72124;BME280;59998;37.126;-8.538;2022-08-01T17:15:44;101048.2;;;33.7;25.4
72124;BME280;59998;37.126;-8.538;2022-08-01T17:20:30;101039.3;;;33.7;24.3
72124;BME280;59998;37.126;-8.538;2022-08-01T17:25:17;101049.2;;;33.7;24.2
72124;BME280;59998;37.126;-8.538;2022-08-01T17:30:03;101046.3;;;33.8;24.2
72124;BME280;59998;37.126;-8.538;2022-08-01T17:34:49;101048.7;;;33.9;24.6
72124;BME280;59998;37.126;-8.538;2022-08-01T17:39:36;101042.2;;;34.1;24.3
72124;BME280;59998;37.126;-8.538;2022-08-01T17:44:24;101041.1;;;34.4;24.2
72124;BME280;59998;37.126;-8.538;2022-08-01T17:49:11;101039.6;;;34.5;23.4
72124;BME280;59998;37.126;-8.538;2022-08-01T17:53:57;101031.3;;;34.7;23.5
72124;BME280;59998;37.126;-8.538;2022-08-01T17:58:46;101036.4;;;34.6;23.8
72124;BME280;59998;37.126;-8.538;2022-08-01T18:03:35;101032.4;;;34.7;23.2
72124;BME280;59998;37.126;-8.538;2022-08-01T18:08:21;101033.0;;;34.8;21.4
72124;BME280;59998;37.126;-8.538;2022-08-01T18:13:10;101029.9;;;34.7;21.8
72124;BME280;59998;37.126;-8.538;2022-08-01T18:17:57;101026.2;;;34.8;22.0
72124;BME280;59998;37.126;-8.538;2022-08-01T18:22:43;101021.3;;;34.9;21.8
72124;BME280;59998;37.126;-8.538;2022-08-01T18:27:30;101024.7;;;35.2;21.7
72124;BME280;59998;37.126;-8.538;2022-08-01T18:32:16;101026.8;;;35.4;21.3
72124;BME280;59998;37.126;-8.538;2022-08-01T18:37:03;101023.9;;;35.5;19.8
72124;BME280;59998;37.126;-8.538;2022-08-01T18:41:49;101030.2;;;35.5;18.9
72124;BME280;59998;37.126;-8.538;2022-08-01T18:46:36;101021.4;;;35.5;18.8
72124;BME280;59998;37.126;-8.538;2022-08-01T18:51:22;101030.3;;;35.2;18.7
72124;BME280;59998;37.126;-8.538;2022-08-01T18:56:09;101026.2;;;34.9;19.2
72124;BME280;59998;37.126;-8.538;2022-08-01T19:00:55;101037.6;;;34.4;19.4
72124;BME280;59998;37.126;-8.538;2022-08-01T19:05:41;101026.9;;;34.1;19.9
72124;BME280;59998;37.126;-8.538;2022-08-01T19:10:28;101030.4;;;33.9;20.1
72124;BME280;59998;37.126;-8.538;2022-08-01T19:15:14;101027.4;;;33.5;19.7
72124;BME280;59998;37.126;-8.538;2022-08-01T19:20:00;101022.0;;;33.3;19.7
72124;BME280;59998;37.126;-8.538;2022-08-01T19:24:46;101030.5;;;33.0;20.1
72124;BME280;59998;37.126;-8.538;2022-08-01T19:29:34;101031.1;;;32.7;19.7
72124;BME280;59998;37.126;-8.538;2022-08-01T19:34:22;101025.1;;;32.5;20.0
72124;BME280;59998;37.126;-8.538;2022-08-01T19:39:09;101028.0;;;32.4;20.7
72124;BME280;59998;37.126;-8.538;2022-08-01T19:43:56;101024.0;;;32.1;20.7
72124;BME280;59998;37.126;-8.538;2022-08-01T19:48:43;101024.0;;;32.0;20.5
72124;BME280;59998;37.126;-8.538;2022-08-01T19:53:34;101026.9;;;31.8;20.5
72124;BME280;59998;37.126;-8.538;2022-08-01T19:58:21;101029.4;;;31.7;20.6
72124;BME280;59998;37.126;-8.538;2022-08-01T20:03:10;101036.1;;;31.6;20.2
72124;BME280;59998;37.126;-8.538;2022-08-01T20:08:00;101039.5;;;31.5;20.8
72124;BME280;59998;37.126;-8.538;2022-08-01T20:12:46;101039.6;;;31.5;21.4
72124;BME280;59998;37.126;-8.538;2022-08-01T20:17:33;101040.6;;;31.4;21.3
72124;BME280;59998;37.126;-8.538;2022-08-01T20:22:23;101038.8;;;31.3;21.2
72124;BME280;59998;37.126;-8.538;2022-08-01T20:27:10;101053.7;;;31.3;21.7
72124;BME280;59998;37.126;-8.538;2022-08-01T20:31:58;101055.4;;;31.2;22.8
72124;BME280;59998;37.126;-8.538;2022-08-01T20:36:45;101055.2;;;31.1;23.8
72124;BME280;59998;37.126;-8.538;2022-08-01T20:41:32;101058.6;;;31.1;25.9
72124;BME280;59998;37.126;-8.538;2022-08-01T20:46:19;101063.9;;;31.0;26.9
72124;BME280;59998;37.126;-8.538;2022-08-01T20:51:08;101076.4;;;30.9;26.6
72124;BME280;59998;37.126;-8.538;2022-08-01T20:56:06;101067.2;;;30.8;26.8
72124;BME280;59998;37.126;-8.538;2022-08-01T21:00:56;101074.9;;;30.8;27.9
72124;BME280;59998;37.126;-8.538;2022-08-01T21:05:54;101085.9;;;30.7;27.8
72124;BME280;59998;37.126;-8.538;2022-08-01T21:10:42;101089.7;;;30.6;28.3
72124;BME280;59998;37.126;-8.538;2022-08-01T21:15:30;101094.6;;;30.5;29.1
72124;BME280;59998;37.126;-8.538;2022-08-01T21:20:18;101100.2;;;30.5;29.6
72124;BME280;59998;37.126;-8.538;2022-08-01T21:25:06;101102.3;;;30.4;30.0
72124;BME280;59998;37.126;-8.538;2022-08-01T21:29:56;101108.0;;;30.4;29.8
72124;BME280;59998;37.126;-8.538;2022-08-01T21:34:45;101106.5;;;30.3;29.7
72124;BME280;59998;37.126;-8.538;2022-08-01T21:39:33;101116.1;;;30.3;29.7
72124;BME280;59998;37.126;-8.538;2022-08-01T21:44:23;101114.2;;;30.3;30.2
72124;BME280;59998;37.126;-8.538;2022-08-01T21:49:10;101119.0;;;30.2;30.1
72124;BME280;59998;37.126;-8.538;2022-08-01T21:54:02;101120.1;;;30.1;29.8
72124;BME280;59998;37.126;-8.538;2022-08-01T21:58:51;101116.7;;;30.0;29.7
72124;BME280;59998;37.126;-8.538;2022-08-01T22:03:45;101111.7;;;29.8;30.4
72124;BME280;59998;37.126;-8.538;2022-08-01T22:08:33;101127.4;;;29.7;31.3
72124;BME280;59998;37.126;-8.538;2022-08-01T22:13:22;101115.4;;;29.5;30.8
72124;BME280;59998;37.126;-8.538;2022-08-01T22:18:08;101120.6;;;29.3;31.3
72124;BME280;59998;37.126;-8.538;2022-08-01T22:22:54;101130.3;;;29.4;31.4
72124;BME280;59998;37.126;-8.538;2022-08-01T22:27:41;101121.6;;;29.4;30.7
72124;BME280;59998;37.126;-8.538;2022-08-01T22:32:30;101114.7;;;29.3;31.2
72124;BME280;59998;37.126;-8.538;2022-08-01T22:37:17;101126.6;;;29.3;31.5
72124;BME280;59998;37.126;-8.538;2022-08-01T22:42:05;101129.3;;;29.3;31.5
72124;BME280;59998;37.126;-8.538;2022-08-01T22:46:57;101125.7;;;29.3;31.2
72124;BME280;59998;37.126;-8.538;2022-08-01T22:51:54;101132.9;;;29.3;31.3
72124;BME280;59998;37.126;-8.538;2022-08-01T22:56:43;101128.2;;;29.3;31.1
72124;BME280;59998;37.126;-8.538;2022-08-01T23:01:34;101134.9;;;29.3;31.6
72124;BME280;59998;37.126;-8.538;2022-08-01T23:06:27;101129.9;;;29.2;30.8
72124;BME280;59998;37.126;-8.538;2022-08-01T23:11:19;101135.1;;;29.2;32.2
72124;BME280;59998;37.126;-8.538;2022-08-01T23:16:07;101137.9;;;29.1;32.1
72124;BME280;59998;37.126;-8.538;2022-08-01T23:20:56;101140.8;;;29.1;31.5
72124;BME280;59998;37.126;-8.538;2022-08-01T23:25:46;101136.2;;;29.0;31.0
72124;BME280;59998;37.126;-8.538;2022-08-01T23:30:34;101142.6;;;29.0;33.6
72124;BME280;59998;37.126;-8.538;2022-08-01T23:35:20;101142.0;;;28.8;36.4
72124;BME280;59998;37.126;-8.538;2022-08-01T23:40:08;101140.2;;;28.8;36.8
72124;BME280;59998;37.126;-8.538;2022-08-01T23:44:54;101129.2;;;28.7;37.9
72124;BME280;59998;37.126;-8.538;2022-08-01T23:49:40;101137.3;;;28.5;39.2
72124;BME280;59998;37.126;-8.538;2022-08-01T23:54:29;101129.6;;;28.5;38.3
72124;BME280;59998;37.126;-8.538;2022-08-01T23:59:16;101140.4;;;28.4;37.2
